sensor_id;sensor_type;location;lat;lon;timestamp;P1;durP1;ratioP1;P2;durP2;ratioP2
64986;SDS011;67903;52.108;9.358;2024-03-07T00:01:09;19.98;;;15.98;;
64986;SDS011;67903;52.108;9.358;2024-03-07T00:03:55;22.27;;;17.38;;
64986;SDS011;67903;52.108;9.358;2024-03-07T00:06:40;20.73;;;17.10;;
64986;SDS011;67903;52.108;9.358;2024-03-07T00:09:26;20.50;;;16.33;;
64986;SDS011;67903;52.108;9.358;2024-03-07T00:12:12;21.60;;;16.95;;
64986;SDS011;67903;52.108;9.358;2024-03-07T00:14:57;22.73;;;16.83;;
64986;SDS011;67903;52.108;9.358;2024-03-07T00:17:43;20.77;;;16.90;;
64986;SDS011;67903;52.108;9.358;2024-03-07T00:20:28;21.48;;;16.45;;
64986;SDS011;67903;52.108;9.358;2024-03-07T00:23:14;21.55;;;17.02;;
64986;SDS011;67903;52.108;9.358;2024-03-07T00:26:01;19.77;;;16.50;;
64986;SDS011;67903;52.108;9.358;2024-03-07T00:28:47;21.05;;;17.33;;
64986;SDS011;67903;52.108;9.358;2024-03-07T00:31:33;22.10;;;16.92;;
64986;SDS011;67903;52.108;9.358;2024-03-07T00:34:18;21.10;;;16.25;;
64986;SDS011;67903;52.108;9.358;2024-03-07T00:37:10;22.35;;;17.10;;
64986;SDS011;67903;52.108;9.358;2024-03-07T00:39:56;20.15;;;17.02;;
64986;SDS011;67903;52.108;9.358;2024-03-07T00:42:41;22.30;;;17.65;;
64986;SDS011;67903;52.108;9.358;2024-03-07T00:45:27;21.10;;;17.17;;
64986;SDS011;67903;52.108;9.358;2024-03-07T00:48:13;21.65;;;17.20;;
64986;SDS011;67903;52.108;9.358;2024-03-07T00:50:59;22.58;;;17.38;;
64986;SDS011;67903;52.108;9.358;2024-03-07T00:53:45;23.90;;;18.55;;
64986;SDS011;67903;52.108;9.358;2024-03-07T00:56:32;19.30;;;16.85;;
64986;SDS011;67903;52.108;9.358;2024-03-07T00:59:17;22.95;;;17.95;;
64986;SDS011;67903;52.108;9.358;2024-03-07T01:02:04;21.48;;;16.85;;
64986;SDS011;67903;52.108;9.358;2024-03-07T01:04:49;21.63;;;16.92;;
64986;SDS011;67903;52.108;9.358;2024-03-07T01:07:35;24.40;;;17.38;;
64986;SDS011;67903;52.108;9.358;2024-03-07T01:10:22;21.88;;;18.30;;
64986;SDS011;67903;52.108;9.358;2024-03-07T01:13:07;21.63;;;16.35;;
64986;SDS011;67903;52.108;9.358;2024-03-07T01:16:00;23.05;;;17.92;;
64986;SDS011;67903;52.108;9.358;2024-03-07T01:18:46;21.98;;;17.42;;
64986;SDS011;67903;52.108;9.358;2024-03-07T01:21:32;20.08;;;17.13;;
64986;SDS011;67903;52.108;9.358;2024-03-07T01:24:22;25.33;;;17.92;;
64986;SDS011;67903;52.108;9.358;2024-03-07T01:27:08;22.45;;;18.45;;
64986;SDS011;67903;52.108;9.358;2024-03-07T01:29:53;21.08;;;18.02;;
64986;SDS011;67903;52.108;9.358;2024-03-07T01:32:39;22.63;;;17.92;;
64986;SDS011;67903;52.108;9.358;2024-03-07T01:35:24;23.15;;;17.98;;
64986;SDS011;67903;52.108;9.358;2024-03-07T01:38:10;22.40;;;17.38;;
64986;SDS011;67903;52.108;9.358;2024-03-07T01:40:55;21.70;;;17.23;;
64986;SDS011;67903;52.108;9.358;2024-03-07T01:43:41;25.35;;;18.35;;
64986;SDS011;67903;52.108;9.358;2024-03-07T01:46:28;21.88;;;17.45;;
64986;SDS011;67903;52.108;9.358;2024-03-07T01:49:14;22.38;;;17.63;;
64986;SDS011;67903;52.108;9.358;2024-03-07T01:51:59;23.63;;;17.92;;
64986;SDS011;67903;52.108;9.358;2024-03-07T01:54:47;22.13;;;17.55;;
64986;SDS011;67903;52.108;9.358;2024-03-07T01:57:33;24.25;;;17.73;;
64986;SDS011;67903;52.108;9.358;2024-03-07T02:00:20;23.25;;;17.92;;
64986;SDS011;67903;52.108;9.358;2024-03-07T02:03:05;20.05;;;16.60;;
64986;SDS011;67903;52.108;9.358;2024-03-07T02:05:51;21.17;;;16.48;;
64986;SDS011;67903;52.108;9.358;2024-03-07T02:08:37;21.85;;;16.48;;
64986;SDS011;67903;52.108;9.358;2024-03-07T02:11:23;23.65;;;16.48;;
64986;SDS011;67903;52.108;9.358;2024-03-07T02:14:09;21.17;;;16.17;;
64986;SDS011;67903;52.108;9.358;2024-03-07T02:16:54;20.33;;;15.88;;
64986;SDS011;67903;52.108;9.358;2024-03-07T02:19:41;20.73;;;16.35;;
64986;SDS011;67903;52.108;9.358;2024-03-07T02:22:26;22.63;;;15.60;;
64986;SDS011;67903;52.108;9.358;2024-03-07T02:25:12;21.85;;;15.63;;
64986;SDS011;67903;52.108;9.358;2024-03-07T02:27:57;18.80;;;14.98;;
64986;SDS011;67903;52.108;9.358;2024-03-07T02:30:43;22.20;;;16.48;;
64986;SDS011;67903;52.108;9.358;2024-03-07T02:33:30;21.75;;;16.25;;
64986;SDS011;67903;52.108;9.358;2024-03-07T02:36:17;20.20;;;16.13;;
64986;SDS011;67903;52.108;9.358;2024-03-07T02:39:03;22.00;;;17.50;;
64986;SDS011;67903;52.108;9.358;2024-03-07T02:41:49;21.95;;;17.05;;
64986;SDS011;67903;52.108;9.358;2024-03-07T02:44:34;22.40;;;16.38;;
64986;SDS011;67903;52.108;9.358;2024-03-07T02:47:20;18.70;;;14.82;;
64986;SDS011;67903;52.108;9.358;2024-03-07T02:50:10;20.50;;;14.75;;
64986;SDS011;67903;52.108;9.358;2024-03-07T02:52:56;19.45;;;14.85;;
64986;SDS011;67903;52.108;9.358;2024-03-07T02:55:42;18.90;;;14.07;;
64986;SDS011;67903;52.108;9.358;2024-03-07T02:58:27;19.55;;;15.05;;
64986;SDS011;67903;52.108;9.358;2024-03-07T03:01:13;20.15;;;14.68;;
64986;SDS011;67903;52.108;9.358;2024-03-07T03:03:58;18.85;;;13.95;;
64986;SDS011;67903;52.108;9.358;2024-03-07T03:06:44;18.85;;;14.35;;
64986;SDS011;67903;52.108;9.358;2024-03-07T03:09:29;21.00;;;14.45;;
64986;SDS011;67903;52.108;9.358;2024-03-07T03:12:15;18.17;;;14.23;;
64986;SDS011;67903;52.108;9.358;2024-03-07T03:15:01;19.35;;;13.98;;
64986;SDS011;67903;52.108;9.358;2024-03-07T03:17:47;20.25;;;14.48;;
64986;SDS011;67903;52.108;9.358;2024-03-07T03:20:33;19.15;;;14.65;;
64986;SDS011;67903;52.108;9.358;2024-03-07T03:23:20;18.15;;;14.02;;
64986;SDS011;67903;52.108;9.358;2024-03-07T03:26:06;18.15;;;13.70;;
64986;SDS011;67903;52.108;9.358;2024-03-07T03:28:51;20.88;;;14.93;;
64986;SDS011;67903;52.108;9.358;2024-03-07T03:31:37;19.70;;;14.40;;
64986;SDS011;67903;52.108;9.358;2024-03-07T03:34:23;17.50;;;13.18;;
64986;SDS011;67903;52.108;9.358;2024-03-07T03:37:09;17.63;;;14.85;;
64986;SDS011;67903;52.108;9.358;2024-03-07T03:39:54;19.00;;;14.32;;
64986;SDS011;67903;52.108;9.358;2024-03-07T03:42:40;18.25;;;14.00;;
64986;SDS011;67903;52.108;9.358;2024-03-07T03:45:27;20.20;;;16.10;;
64986;SDS011;67903;52.108;9.358;2024-03-07T03:48:12;20.48;;;15.70;;
64986;SDS011;67903;52.108;9.358;2024-03-07T03:50:58;20.38;;;14.95;;
64986;SDS011;67903;52.108;9.358;2024-03-07T03:53:44;19.50;;;14.35;;
64986;SDS011;67903;52.108;9.358;2024-03-07T03:56:29;20.38;;;14.75;;
64986;SDS011;67903;52.108;9.358;2024-03-07T03:59:17;20.02;;;15.02;;
64986;SDS011;67903;52.108;9.358;2024-03-07T04:02:03;21.65;;;15.48;;
64986;SDS011;67903;52.108;9.358;2024-03-07T04:04:50;18.13;;;14.80;;
64986;SDS011;67903;52.108;9.358;2024-03-07T04:07:39;22.77;;;15.32;;
64986;SDS011;67903;52.108;9.358;2024-03-07T04:10:27;19.85;;;15.52;;
64986;SDS011;67903;52.108;9.358;2024-03-07T04:13:12;20.52;;;15.30;;
64986;SDS011;67903;52.108;9.358;2024-03-07T04:15:58;21.55;;;15.50;;
64986;SDS011;67903;52.108;9.358;2024-03-07T04:18:43;21.25;;;15.38;;
64986;SDS011;67903;52.108;9.358;2024-03-07T04:21:29;18.42;;;13.80;;
64986;SDS011;67903;52.108;9.358;2024-03-07T04:24:14;18.38;;;14.52;;
64986;SDS011;67903;52.108;9.358;2024-03-07T04:27:00;21.30;;;16.02;;
64986;SDS011;67903;52.108;9.358;2024-03-07T04:29:48;16.83;;;14.23;;
64986;SDS011;67903;52.108;9.358;2024-03-07T04:32:34;18.50;;;14.23;;
64986;SDS011;67903;52.108;9.358;2024-03-07T04:35:21;18.58;;;14.88;;
64986;SDS011;67903;52.108;9.358;2024-03-07T04:38:07;19.70;;;15.25;;
64986;SDS011;67903;52.108;9.358;2024-03-07T04:40:56;17.95;;;14.50;;
64986;SDS011;67903;52.108;9.358;2024-03-07T04:43:42;19.85;;;14.98;;
64986;SDS011;67903;52.108;9.358;2024-03-07T04:46:27;19.17;;;14.18;;
64986;SDS011;67903;52.108;9.358;2024-03-07T04:49:13;18.92;;;15.18;;
64986;SDS011;67903;52.108;9.358;2024-03-07T04:51:59;17.75;;;14.60;;
64986;SDS011;67903;52.108;9.358;2024-03-07T04:54:45;19.88;;;14.65;;
64986;SDS011;67903;52.108;9.358;2024-03-07T04:57:31;18.30;;;14.95;;
64986;SDS011;67903;52.108;9.358;2024-03-07T05:00:17;19.65;;;15.13;;
64986;SDS011;67903;52.108;9.358;2024-03-07T05:03:06;20.25;;;15.18;;
64986;SDS011;67903;52.108;9.358;2024-03-07T05:05:51;19.73;;;14.95;;
64986;SDS011;67903;52.108;9.358;2024-03-07T05:08:36;20.20;;;16.48;;
64986;SDS011;67903;52.108;9.358;2024-03-07T05:11:22;20.60;;;15.90;;
64986;SDS011;67903;52.108;9.358;2024-03-07T05:14:08;19.42;;;15.57;;
64986;SDS011;67903;52.108;9.358;2024-03-07T05:16:53;19.48;;;14.75;;
64986;SDS011;67903;52.108;9.358;2024-03-07T05:19:50;19.38;;;15.68;;
64986;SDS011;67903;52.108;9.358;2024-03-07T05:22:36;19.38;;;14.80;;
64986;SDS011;67903;52.108;9.358;2024-03-07T05:25:30;21.42;;;15.23;;
64986;SDS011;67903;52.108;9.358;2024-03-07T05:28:15;19.58;;;15.70;;
64986;SDS011;67903;52.108;9.358;2024-03-07T05:31:01;19.95;;;16.52;;
64986;SDS011;67903;52.108;9.358;2024-03-07T05:33:47;20.38;;;15.85;;
64986;SDS011;67903;52.108;9.358;2024-03-07T05:36:33;20.73;;;15.15;;
64986;SDS011;67903;52.108;9.358;2024-03-07T05:39:19;22.02;;;15.50;;
64986;SDS011;67903;52.108;9.358;2024-03-07T05:42:04;20.00;;;15.52;;
64986;SDS011;67903;52.108;9.358;2024-03-07T05:44:52;20.45;;;16.13;;
64986;SDS011;67903;52.108;9.358;2024-03-07T05:47:39;23.50;;;17.52;;
64986;SDS011;67903;52.108;9.358;2024-03-07T05:50:25;24.10;;;18.23;;
64986;SDS011;67903;52.108;9.358;2024-03-07T05:53:10;22.35;;;16.58;;
64986;SDS011;67903;52.108;9.358;2024-03-07T05:55:56;23.65;;;18.90;;
64986;SDS011;67903;52.108;9.358;2024-03-07T05:58:42;27.42;;;19.20;;
64986;SDS011;67903;52.108;9.358;2024-03-07T06:01:27;25.92;;;19.10;;
64986;SDS011;67903;52.108;9.358;2024-03-07T06:04:13;27.77;;;19.95;;
64986;SDS011;67903;52.108;9.358;2024-03-07T06:06:58;25.02;;;19.20;;
64986;SDS011;67903;52.108;9.358;2024-03-07T06:09:44;21.63;;;17.33;;
64986;SDS011;67903;52.108;9.358;2024-03-07T06:12:30;25.52;;;19.55;;
64986;SDS011;67903;52.108;9.358;2024-03-07T06:15:15;28.75;;;20.65;;
64986;SDS011;67903;52.108;9.358;2024-03-07T06:18:01;22.83;;;18.00;;
64986;SDS011;67903;52.108;9.358;2024-03-07T06:20:47;24.55;;;18.70;;
64986;SDS011;67903;52.108;9.358;2024-03-07T06:23:33;26.02;;;20.08;;
64986;SDS011;67903;52.108;9.358;2024-03-07T06:26:19;28.55;;;19.42;;
64986;SDS011;67903;52.108;9.358;2024-03-07T06:29:21;27.48;;;20.38;;
64986;SDS011;67903;52.108;9.358;2024-03-07T06:32:07;30.17;;;20.35;;
64986;SDS011;67903;52.108;9.358;2024-03-07T06:34:52;28.20;;;20.15;;
64986;SDS011;67903;52.108;9.358;2024-03-07T06:37:38;30.08;;;20.58;;
64986;SDS011;67903;52.108;9.358;2024-03-07T06:40:24;29.25;;;20.40;;
64986;SDS011;67903;52.108;9.358;2024-03-07T06:43:12;27.90;;;20.70;;
64986;SDS011;67903;52.108;9.358;2024-03-07T06:45:58;30.45;;;21.20;;
64986;SDS011;67903;52.108;9.358;2024-03-07T06:48:44;31.05;;;20.67;;
64986;SDS011;67903;52.108;9.358;2024-03-07T06:51:30;30.60;;;20.52;;
64986;SDS011;67903;52.108;9.358;2024-03-07T06:54:15;33.03;;;21.23;;
64986;SDS011;67903;52.108;9.358;2024-03-07T06:57:01;33.90;;;20.42;;
64986;SDS011;67903;52.108;9.358;2024-03-07T06:59:48;27.42;;;19.65;;
64986;SDS011;67903;52.108;9.358;2024-03-07T07:02:33;31.13;;;20.92;;
64986;SDS011;67903;52.108;9.358;2024-03-07T07:05:18;27.45;;;20.88;;
64986;SDS011;67903;52.108;9.358;2024-03-07T07:08:05;33.53;;;19.95;;
64986;SDS011;67903;52.108;9.358;2024-03-07T07:10:51;31.90;;;22.38;;
64986;SDS011;67903;52.108;9.358;2024-03-07T07:13:39;31.77;;;21.30;;
64986;SDS011;67903;52.108;9.358;2024-03-07T07:16:27;29.58;;;21.50;;
64986;SDS011;67903;52.108;9.358;2024-03-07T07:19:14;30.67;;;21.20;;
64986;SDS011;67903;52.108;9.358;2024-03-07T07:22:00;30.95;;;20.95;;
64986;SDS011;67903;52.108;9.358;2024-03-07T07:24:45;28.52;;;20.38;;
64986;SDS011;67903;52.108;9.358;2024-03-07T07:27:32;32.58;;;20.60;;
64986;SDS011;67903;52.108;9.358;2024-03-07T07:30:18;34.83;;;22.15;;
64986;SDS011;67903;52.108;9.358;2024-03-07T07:33:08;31.67;;;21.70;;
64986;SDS011;67903;52.108;9.358;2024-03-07T07:35:53;30.83;;;21.27;;
64986;SDS011;67903;52.108;9.358;2024-03-07T07:38:39;31.60;;;20.98;;
64986;SDS011;67903;52.108;9.358;2024-03-07T07:41:24;30.15;;;21.17;;
64986;SDS011;67903;52.108;9.358;2024-03-07T07:44:10;34.65;;;20.60;;
64986;SDS011;67903;52.108;9.358;2024-03-07T07:46:55;29.40;;;21.63;;
64986;SDS011;67903;52.108;9.358;2024-03-07T07:49:41;32.10;;;20.60;;
64986;SDS011;67903;52.108;9.358;2024-03-07T07:52:26;36.38;;;22.13;;
64986;SDS011;67903;52.108;9.358;2024-03-07T07:55:12;34.55;;;22.25;;
64986;SDS011;67903;52.108;9.358;2024-03-07T07:58:00;37.75;;;22.52;;
64986;SDS011;67903;52.108;9.358;2024-03-07T08:00:49;30.67;;;21.67;;
64986;SDS011;67903;52.108;9.358;2024-03-07T08:03:34;33.20;;;20.40;;
64986;SDS011;67903;52.108;9.358;2024-03-07T08:06:20;29.83;;;20.80;;
64986;SDS011;67903;52.108;9.358;2024-03-07T08:09:05;30.90;;;20.75;;
64986;SDS011;67903;52.108;9.358;2024-03-07T08:11:54;30.25;;;21.85;;
64986;SDS011;67903;52.108;9.358;2024-03-07T08:14:40;31.38;;;20.75;;
64986;SDS011;67903;52.108;9.358;2024-03-07T08:17:25;32.17;;;20.90;;
64986;SDS011;67903;52.108;9.358;2024-03-07T08:20:13;31.40;;;22.02;;
64986;SDS011;67903;52.108;9.358;2024-03-07T08:23:00;33.05;;;21.58;;
64986;SDS011;67903;52.108;9.358;2024-03-07T08:25:45;36.15;;;22.63;;
64986;SDS011;67903;52.108;9.358;2024-03-07T08:28:31;29.90;;;21.08;;
64986;SDS011;67903;52.108;9.358;2024-03-07T08:31:16;33.08;;;22.77;;
64986;SDS011;67903;52.108;9.358;2024-03-07T08:34:02;31.48;;;21.13;;
64986;SDS011;67903;52.108;9.358;2024-03-07T08:36:48;37.25;;;23.17;;
64986;SDS011;67903;52.108;9.358;2024-03-07T08:39:33;35.47;;;23.70;;
64986;SDS011;67903;52.108;9.358;2024-03-07T08:42:18;34.20;;;21.23;;
64986;SDS011;67903;52.108;9.358;2024-03-07T08:45:04;32.58;;;20.50;;
64986;SDS011;67903;52.108;9.358;2024-03-07T08:47:51;30.90;;;19.77;;
64986;SDS011;67903;52.108;9.358;2024-03-07T08:50:43;30.67;;;19.25;;
64986;SDS011;67903;52.108;9.358;2024-03-07T08:53:28;30.70;;;19.83;;
64986;SDS011;67903;52.108;9.358;2024-03-07T08:56:13;27.25;;;19.08;;
64986;SDS011;67903;52.108;9.358;2024-03-07T08:58:59;30.13;;;19.45;;
64986;SDS011;67903;52.108;9.358;2024-03-07T09:01:45;32.30;;;20.42;;
64986;SDS011;67903;52.108;9.358;2024-03-07T09:04:30;32.78;;;20.17;;
64986;SDS011;67903;52.108;9.358;2024-03-07T09:07:16;32.53;;;20.92;;
64986;SDS011;67903;52.108;9.358;2024-03-07T09:10:02;35.33;;;20.73;;
64986;SDS011;67903;52.108;9.358;2024-03-07T09:12:50;35.90;;;20.80;;
64986;SDS011;67903;52.108;9.358;2024-03-07T09:15:37;35.13;;;21.02;;
64986;SDS011;67903;52.108;9.358;2024-03-07T09:18:23;35.00;;;20.73;;
64986;SDS011;67903;52.108;9.358;2024-03-07T09:21:10;29.27;;;20.77;;
64986;SDS011;67903;52.108;9.358;2024-03-07T09:23:56;34.80;;;20.60;;
64986;SDS011;67903;52.108;9.358;2024-03-07T09:26:42;35.47;;;20.77;;
64986;SDS011;67903;52.108;9.358;2024-03-07T09:29:28;39.33;;;22.20;;
64986;SDS011;67903;52.108;9.358;2024-03-07T09:32:14;44.63;;;24.13;;
64986;SDS011;67903;52.108;9.358;2024-03-07T09:34:59;41.60;;;24.08;;
64986;SDS011;67903;52.108;9.358;2024-03-07T09:37:46;39.50;;;22.63;;
64986;SDS011;67903;52.108;9.358;2024-03-07T09:40:32;44.10;;;24.35;;
64986;SDS011;67903;52.108;9.358;2024-03-07T09:43:20;46.35;;;24.60;;
64986;SDS011;67903;52.108;9.358;2024-03-07T09:46:07;39.53;;;23.60;;
64986;SDS011;67903;52.108;9.358;2024-03-07T09:48:55;42.58;;;24.52;;
64986;SDS011;67903;52.108;9.358;2024-03-07T09:51:42;43.80;;;24.77;;
64986;SDS011;67903;52.108;9.358;2024-03-07T09:54:29;47.10;;;24.80;;
64986;SDS011;67903;52.108;9.358;2024-03-07T09:57:15;42.60;;;24.23;;
64986;SDS011;67903;52.108;9.358;2024-03-07T10:00:01;50.13;;;25.45;;
64986;SDS011;67903;52.108;9.358;2024-03-07T10:02:57;43.28;;;25.00;;
64986;SDS011;67903;52.108;9.358;2024-03-07T10:05:53;48.35;;;26.48;;
64986;SDS011;67903;52.108;9.358;2024-03-07T10:08:39;44.08;;;24.00;;
64986;SDS011;67903;52.108;9.358;2024-03-07T10:11:27;49.30;;;25.00;;
64986;SDS011;67903;52.108;9.358;2024-03-07T10:14:13;43.17;;;24.02;;
64986;SDS011;67903;52.108;9.358;2024-03-07T10:16:59;38.30;;;22.48;;
64986;SDS011;67903;52.108;9.358;2024-03-07T10:19:47;38.65;;;22.73;;
64986;SDS011;67903;52.108;9.358;2024-03-07T10:22:36;40.22;;;23.45;;
64986;SDS011;67903;52.108;9.358;2024-03-07T10:25:21;37.63;;;21.67;;
64986;SDS011;67903;52.108;9.358;2024-03-07T10:28:10;36.10;;;22.67;;
64986;SDS011;67903;52.108;9.358;2024-03-07T10:30:56;37.42;;;21.83;;
64986;SDS011;67903;52.108;9.358;2024-03-07T10:33:42;35.53;;;21.77;;
64986;SDS011;67903;52.108;9.358;2024-03-07T10:36:28;33.58;;;21.77;;
64986;SDS011;67903;52.108;9.358;2024-03-07T10:39:15;34.45;;;21.88;;
64986;SDS011;67903;52.108;9.358;2024-03-07T10:42:02;32.65;;;20.67;;
64986;SDS011;67903;52.108;9.358;2024-03-07T10:44:50;36.85;;;21.63;;
64986;SDS011;67903;52.108;9.358;2024-03-07T10:47:41;33.83;;;21.02;;
64986;SDS011;67903;52.108;9.358;2024-03-07T10:57:19;31.83;;;20.77;;
64986;SDS011;67903;52.108;9.358;2024-03-07T11:00:08;30.00;;;19.85;;
64986;SDS011;67903;52.108;9.358;2024-03-07T11:03:14;35.83;;;21.20;;
64986;SDS011;67903;52.108;9.358;2024-03-07T11:06:01;32.30;;;20.45;;
64986;SDS011;67903;52.108;9.358;2024-03-07T11:08:51;33.33;;;20.23;;
64986;SDS011;67903;52.108;9.358;2024-03-07T11:11:38;37.97;;;27.92;;
64986;SDS011;67903;52.108;9.358;2024-03-07T11:14:29;36.30;;;21.73;;
64986;SDS011;67903;52.108;9.358;2024-03-07T11:17:17;33.35;;;19.88;;
64986;SDS011;67903;52.108;9.358;2024-03-07T11:20:20;32.25;;;20.83;;
64986;SDS011;67903;52.108;9.358;2024-03-07T11:23:25;30.40;;;20.48;;
64986;SDS011;67903;52.108;9.358;2024-03-07T11:26:14;31.85;;;19.98;;
64986;SDS011;67903;52.108;9.358;2024-03-07T11:29:00;35.13;;;20.02;;
64986;SDS011;67903;52.108;9.358;2024-03-07T11:31:46;31.67;;;20.38;;
64986;SDS011;67903;52.108;9.358;2024-03-07T11:34:31;34.85;;;21.33;;
64986;SDS011;67903;52.108;9.358;2024-03-07T11:37:36;33.13;;;20.85;;
64986;SDS011;67903;52.108;9.358;2024-03-07T11:43:13;34.15;;;20.25;;
64986;SDS011;67903;52.108;9.358;2024-03-07T11:45:59;30.55;;;18.83;;
64986;SDS011;67903;52.108;9.358;2024-03-07T11:48:45;32.50;;;20.20;;
64986;SDS011;67903;52.108;9.358;2024-03-07T11:51:30;34.25;;;19.42;;
64986;SDS011;67903;52.108;9.358;2024-03-07T11:54:16;31.83;;;19.90;;
64986;SDS011;67903;52.108;9.358;2024-03-07T11:57:09;33.53;;;20.92;;
64986;SDS011;67903;52.108;9.358;2024-03-07T11:59:58;34.60;;;20.45;;
64986;SDS011;67903;52.108;9.358;2024-03-07T12:02:46;31.67;;;19.40;;
64986;SDS011;67903;52.108;9.358;2024-03-07T12:05:33;33.83;;;20.45;;
64986;SDS011;67903;52.108;9.358;2024-03-07T12:08:19;30.75;;;18.30;;
64986;SDS011;67903;52.108;9.358;2024-03-07T12:11:09;30.55;;;20.30;;
64986;SDS011;67903;52.108;9.358;2024-03-07T12:14:00;34.40;;;20.38;;
64986;SDS011;67903;52.108;9.358;2024-03-07T12:16:48;35.22;;;20.60;;
64986;SDS011;67903;52.108;9.358;2024-03-07T12:19:33;34.00;;;19.33;;
64986;SDS011;67903;52.108;9.358;2024-03-07T12:22:19;31.50;;;18.55;;
64986;SDS011;67903;52.108;9.358;2024-03-07T12:25:17;32.83;;;18.73;;
64986;SDS011;67903;52.108;9.358;2024-03-07T12:28:07;35.55;;;20.30;;
64986;SDS011;67903;52.108;9.358;2024-03-07T12:30:57;33.25;;;20.08;;
64986;SDS011;67903;52.108;9.358;2024-03-07T12:33:43;41.88;;;27.95;;
64986;SDS011;67903;52.108;9.358;2024-03-07T12:36:32;31.88;;;21.23;;
64986;SDS011;67903;52.108;9.358;2024-03-07T12:42:17;34.13;;;21.27;;
64986;SDS011;67903;52.108;9.358;2024-03-07T12:45:05;34.33;;;21.40;;
64986;SDS011;67903;52.108;9.358;2024-03-07T12:47:51;32.78;;;20.70;;
64986;SDS011;67903;52.108;9.358;2024-03-07T12:50:39;36.97;;;22.02;;
64986;SDS011;67903;52.108;9.358;2024-03-07T12:53:26;39.08;;;22.45;;
64986;SDS011;67903;52.108;9.358;2024-03-07T12:56:11;30.45;;;20.20;;
64986;SDS011;67903;52.108;9.358;2024-03-07T12:59:01;29.70;;;20.30;;
64986;SDS011;67903;52.108;9.358;2024-03-07T13:01:46;35.72;;;20.40;;
64986;SDS011;67903;52.108;9.358;2024-03-07T13:04:33;30.08;;;20.95;;
64986;SDS011;67903;52.108;9.358;2024-03-07T13:07:18;30.80;;;19.85;;
64986;SDS011;67903;52.108;9.358;2024-03-07T13:10:04;34.17;;;20.92;;
64986;SDS011;67903;52.108;9.358;2024-03-07T13:12:50;31.48;;;20.33;;
64986;SDS011;67903;52.108;9.358;2024-03-07T13:15:37;33.75;;;22.08;;
64986;SDS011;67903;52.108;9.358;2024-03-07T13:18:23;33.42;;;20.50;;
64986;SDS011;67903;52.108;9.358;2024-03-07T13:21:10;28.08;;;18.27;;
64986;SDS011;67903;52.108;9.358;2024-03-07T13:24:02;29.00;;;19.67;;
64986;SDS011;67903;52.108;9.358;2024-03-07T13:26:48;26.42;;;19.05;;
64986;SDS011;67903;52.108;9.358;2024-03-07T13:29:33;26.65;;;18.42;;
64986;SDS011;67903;52.108;9.358;2024-03-07T13:32:19;25.67;;;16.88;;
64986;SDS011;67903;52.108;9.358;2024-03-07T13:35:05;28.15;;;17.00;;
64986;SDS011;67903;52.108;9.358;2024-03-07T13:37:56;25.90;;;16.75;;
64986;SDS011;67903;52.108;9.358;2024-03-07T13:40:42;27.10;;;19.20;;
64986;SDS011;67903;52.108;9.358;2024-03-07T13:43:27;25.00;;;17.05;;
64986;SDS011;67903;52.108;9.358;2024-03-07T13:46:13;25.63;;;17.80;;
64986;SDS011;67903;52.108;9.358;2024-03-07T13:49:00;26.85;;;17.63;;
64986;SDS011;67903;52.108;9.358;2024-03-07T13:51:52;27.92;;;16.55;;
64986;SDS011;67903;52.108;9.358;2024-03-07T13:54:45;25.88;;;16.90;;
64986;SDS011;67903;52.108;9.358;2024-03-07T13:57:39;27.50;;;16.75;;
64986;SDS011;67903;52.108;9.358;2024-03-07T14:00:52;23.58;;;16.42;;
64986;SDS011;67903;52.108;9.358;2024-03-07T14:07:16;24.00;;;17.88;;
64986;SDS011;67903;52.108;9.358;2024-03-07T14:10:29;26.60;;;17.27;;
64986;SDS011;67903;52.108;9.358;2024-03-07T14:13:59;22.40;;;16.27;;
64986;SDS011;67903;52.108;9.358;2024-03-07T14:17:13;21.65;;;15.77;;
64986;SDS011;67903;52.108;9.358;2024-03-07T14:30:18;21.42;;;15.05;;
64986;SDS011;67903;52.108;9.358;2024-03-07T14:33:11;25.08;;;16.95;;
64986;SDS011;67903;52.108;9.358;2024-03-07T14:36:02;24.73;;;16.85;;
64986;SDS011;67903;52.108;9.358;2024-03-07T14:38:53;28.70;;;18.35;;
64986;SDS011;67903;52.108;9.358;2024-03-07T14:44:42;27.00;;;17.63;;
64986;SDS011;67903;52.108;9.358;2024-03-07T14:47:31;26.77;;;17.67;;
64986;SDS011;67903;52.108;9.358;2024-03-07T14:50:16;26.58;;;17.67;;
64986;SDS011;67903;52.108;9.358;2024-03-07T14:53:05;25.30;;;17.77;;
64986;SDS011;67903;52.108;9.358;2024-03-07T14:55:50;26.52;;;18.10;;
64986;SDS011;67903;52.108;9.358;2024-03-07T14:58:37;22.52;;;17.15;;
64986;SDS011;67903;52.108;9.358;2024-03-07T15:01:26;26.35;;;17.92;;
64986;SDS011;67903;52.108;9.358;2024-03-07T15:04:12;26.05;;;17.08;;
64986;SDS011;67903;52.108;9.358;2024-03-07T15:06:59;20.83;;;17.25;;
64986;SDS011;67903;52.108;9.358;2024-03-07T15:09:47;25.73;;;17.92;;
64986;SDS011;67903;52.108;9.358;2024-03-07T15:12:32;25.38;;;18.00;;
64986;SDS011;67903;52.108;9.358;2024-03-07T15:15:18;23.77;;;17.77;;
64986;SDS011;67903;52.108;9.358;2024-03-07T15:18:04;26.30;;;17.45;;
64986;SDS011;67903;52.108;9.358;2024-03-07T15:20:50;23.27;;;16.88;;
64986;SDS011;67903;52.108;9.358;2024-03-07T15:23:35;23.33;;;16.48;;
64986;SDS011;67903;52.108;9.358;2024-03-07T15:26:21;24.17;;;17.60;;
64986;SDS011;67903;52.108;9.358;2024-03-07T15:29:09;20.10;;;15.13;;
64986;SDS011;67903;52.108;9.358;2024-03-07T15:31:54;21.30;;;15.57;;
64986;SDS011;67903;52.108;9.358;2024-03-07T15:34:41;19.90;;;14.75;;
64986;SDS011;67903;52.108;9.358;2024-03-07T15:37:26;19.50;;;14.98;;
64986;SDS011;67903;52.108;9.358;2024-03-07T15:40:12;19.15;;;15.02;;
64986;SDS011;67903;52.108;9.358;2024-03-07T15:42:58;21.60;;;15.60;;
64986;SDS011;67903;52.108;9.358;2024-03-07T15:45:46;20.95;;;15.00;;
64986;SDS011;67903;52.108;9.358;2024-03-07T15:48:35;16.95;;;14.02;;
64986;SDS011;67903;52.108;9.358;2024-03-07T15:51:21;19.40;;;13.68;;
64986;SDS011;67903;52.108;9.358;2024-03-07T15:54:06;18.13;;;13.38;;
64986;SDS011;67903;52.108;9.358;2024-03-07T15:56:52;19.55;;;13.77;;
64986;SDS011;67903;52.108;9.358;2024-03-07T15:59:41;19.85;;;15.00;;
64986;SDS011;67903;52.108;9.358;2024-03-07T16:02:27;17.63;;;13.80;;
64986;SDS011;67903;52.108;9.358;2024-03-07T16:05:12;16.40;;;13.55;;
64986;SDS011;67903;52.108;9.358;2024-03-07T16:08:01;17.80;;;14.48;;
64986;SDS011;67903;52.108;9.358;2024-03-07T16:10:51;18.77;;;14.18;;
64986;SDS011;67903;52.108;9.358;2024-03-07T16:13:38;20.48;;;13.52;;
64986;SDS011;67903;52.108;9.358;2024-03-07T16:16:24;18.88;;;14.77;;
64986;SDS011;67903;52.108;9.358;2024-03-07T16:19:09;21.25;;;13.57;;
64986;SDS011;67903;52.108;9.358;2024-03-07T16:21:55;20.38;;;14.43;;
64986;SDS011;67903;52.108;9.358;2024-03-07T16:24:43;18.13;;;13.65;;
64986;SDS011;67903;52.108;9.358;2024-03-07T16:27:29;21.35;;;13.70;;
64986;SDS011;67903;52.108;9.358;2024-03-07T16:30:15;19.33;;;14.98;;
64986;SDS011;67903;52.108;9.358;2024-03-07T16:33:03;18.60;;;13.98;;
64986;SDS011;67903;52.108;9.358;2024-03-07T16:35:50;17.35;;;13.77;;
64986;SDS011;67903;52.108;9.358;2024-03-07T16:38:35;17.88;;;13.40;;
64986;SDS011;67903;52.108;9.358;2024-03-07T16:41:21;17.13;;;13.93;;
64986;SDS011;67903;52.108;9.358;2024-03-07T16:44:07;14.93;;;12.18;;
64986;SDS011;67903;52.108;9.358;2024-03-07T16:46:53;15.57;;;12.23;;